createdAt,value
2018-10-06T00:03:20.171Z,79.68
2018-10-06T00:08:13.533Z,79.56
2018-10-06T00:13:06.918Z,79.42
2018-10-06T00:18:00.310Z,79.38
2018-10-06T00:22:55.656Z,79.13
2018-10-06T00:27:49.504Z,79.46
2018-10-06T00:32:44.202Z,78.92
2018-10-06T00:37:37.588Z,79.50
2018-10-06T00:42:31.454Z,79.19
2018-10-06T00:47:24.933Z,79.05
2018-10-06T00:52:18.206Z,79.04
2018-10-06T00:57:11.699Z,79.04
2018-10-06T01:02:05.073Z,78.93
2018-10-06T01:06:58.451Z,78.40
2018-10-06T01:11:51.700Z,78.19
2018-10-06T01:16:45.101Z,78.44
2018-10-06T01:21:38.882Z,78.03
2018-10-06T01:26:32.299Z,78.22
2018-10-06T01:31:26.938Z,78.03
2018-10-06T01:36:21.061Z,77.88
2018-10-06T01:41:14.650Z,78.16
2018-10-06T01:46:08.055Z,77.52
2018-10-06T01:51:02.524Z,77.21
2018-10-06T01:55:55.831Z,78.01
2018-10-06T02:00:49.625Z,78.10
2018-10-06T02:05:43.026Z,78.82
2018-10-06T02:10:36.372Z,78.78
2018-10-06T02:15:30.271Z,78.49
2018-10-06T02:20:23.625Z,78.99
2018-10-06T02:25:16.995Z,78.29
2018-10-06T02:30:11.554Z,78.18
2018-10-06T02:35:04.712Z,78.84
2018-10-06T02:39:58.310Z,78.72
2018-10-06T02:44:51.684Z,78.98
2018-10-06T02:49:45.039Z,78.97
2018-10-06T02:54:38.352Z,78.91
2018-10-06T02:59:31.844Z,79.38
2018-10-06T03:04:25.118Z,78.39
2018-10-06T03:09:18.377Z,79.07
2018-10-06T03:14:11.664Z,78.87
2018-10-06T03:19:05.102Z,78.58
2018-10-06T03:23:58.451Z,78.83
2018-10-06T03:28:51.719Z,79.16
2018-10-06T03:33:45.050Z,79.61
2018-10-06T03:38:38.387Z,79.48
2018-10-06T03:43:31.529Z,78.65
2018-10-06T03:48:24.702Z,79.24
2018-10-06T03:53:17.882Z,79.61
2018-10-06T03:58:11.260Z,79.35
2018-10-06T04:03:04.414Z,79.19
2018-10-06T04:07:57.736Z,78.58
2018-10-06T04:12:51.048Z,79.24
2018-10-06T04:17:44.262Z,79.04
2018-10-06T04:22:37.406Z,79.68
2018-10-06T04:27:30.623Z,80.41
2018-10-06T04:32:24.117Z,80.41
2018-10-06T04:37:17.629Z,80.22
2018-10-06T04:42:10.807Z,80.12
2018-10-06T04:47:04.046Z,79.84
2018-10-06T04:51:57.420Z,79.67
2018-10-06T04:56:50.801Z,79.45
2018-10-06T05:01:44.153Z,79.35
2018-10-06T05:06:37.377Z,78.68
2018-10-06T05:11:30.614Z,77.85
2018-10-06T05:16:23.856Z,76.86
2018-10-06T05:21:17.251Z,76.29
2018-10-06T05:26:10.390Z,76.16
2018-10-06T05:31:04.618Z,76.96
2018-10-06T05:35:57.863Z,75.87
2018-10-06T05:40:51.467Z,76.33
2018-10-06T05:45:44.769Z,75.74
2018-10-06T05:50:38.018Z,75.45
2018-10-06T05:55:31.225Z,75.66
2018-10-06T06:00:25.012Z,74.01
2018-10-06T06:05:18.237Z,73.37
2018-10-06T06:10:12.140Z,72.16
2018-10-06T06:15:05.693Z,70.94
2018-10-06T06:19:58.894Z,70.87
2018-10-06T06:24:52.130Z,69.70
2018-10-06T06:29:45.300Z,68.09
2018-10-06T06:34:38.650Z,68.48
2018-10-06T06:39:31.843Z,65.63
2018-10-06T06:44:25.312Z,65.06
2018-10-06T06:49:18.574Z,63.34
2018-10-06T06:54:11.831Z,61.69
2018-10-06T06:59:05.174Z,59.61
2018-10-06T07:03:58.468Z,62.24
2018-10-06T07:08:51.763Z,60.35
2018-10-06T07:13:45.165Z,60.78
2018-10-06T07:18:41.954Z,58.79
2018-10-06T07:23:35.334Z,59.51
2018-10-06T07:28:28.859Z,58.92
2018-10-06T07:33:23.767Z,57.86
2018-10-06T07:38:17.218Z,59.98
2018-10-06T07:43:10.399Z,58.38
2018-10-06T07:48:03.761Z,57.86
2018-10-06T07:52:57.326Z,58.03
2018-10-06T07:57:50.565Z,57.83
2018-10-06T08:02:46.299Z,57.91
2018-10-06T08:07:39.637Z,57.49
2018-10-06T08:12:33.034Z,57.53
2018-10-06T08:17:26.615Z,54.08
2018-10-06T08:22:19.803Z,54.02
2018-10-06T08:27:13.299Z,55.28
2018-10-06T08:32:06.942Z,55.63
2018-10-06T08:37:00.412Z,56.45
2018-10-06T08:41:53.935Z,55.60
2018-10-06T08:46:47.297Z,55.03
2018-10-06T08:51:40.552Z,55.53
2018-10-06T08:56:33.923Z,55.28
2018-10-06T09:01:27.214Z,54.25
2018-10-06T09:06:20.712Z,54.61
2018-10-06T09:11:14.211Z,54.48
2018-10-06T09:16:07.662Z,55.36
2018-10-06T09:21:00.953Z,56.08
2018-10-06T09:25:54.118Z,54.50
2018-10-06T09:30:47.496Z,55.50
2018-10-06T09:35:40.725Z,54.07
2018-10-06T09:40:34.076Z,52.94
2018-10-06T09:45:27.278Z,56.70
2018-10-06T09:50:20.563Z,53.89
2018-10-06T09:55:13.779Z,53.43
2018-10-06T10:00:07.355Z,53.29
2018-10-06T10:05:09.107Z,54.38
2018-10-06T10:10:04.752Z,54.47
2018-10-06T10:14:57.981Z,54.40
2018-10-06T10:19:51.293Z,53.59
2018-10-06T10:24:44.527Z,53.24
2018-10-06T10:29:41.537Z,53.05
2018-10-06T10:34:34.884Z,52.43
2018-10-06T10:39:28.316Z,53.07
2018-10-06T10:44:21.679Z,52.85
2018-10-06T10:49:14.822Z,52.79
2018-10-06T10:54:08.027Z,51.63
2018-10-06T10:59:01.298Z,52.38
2018-10-06T11:03:54.653Z,52.34
2018-10-06T11:08:47.758Z,52.96
2018-10-06T11:13:41.021Z,51.89
2018-10-06T11:18:34.330Z,52.49
2018-10-06T11:23:27.646Z,53.66
2018-10-06T11:28:21.072Z,53.33
2018-10-06T11:33:14.318Z,52.54
2018-10-06T11:38:07.745Z,52.32
2018-10-06T11:43:00.964Z,52.63
2018-10-06T11:47:54.122Z,51.59
2018-10-06T11:52:47.292Z,51.50
2018-10-06T11:57:40.562Z,51.94
2018-10-06T12:02:33.753Z,51.53
2018-10-06T12:07:26.976Z,52.25
2018-10-06T12:12:20.196Z,51.09
2018-10-06T12:17:13.489Z,51.25
2018-10-06T12:22:06.774Z,51.29
2018-10-06T12:27:00.034Z,49.08
2018-10-06T12:31:53.416Z,50.39
2018-10-06T12:36:46.700Z,51.38
2018-10-06T12:41:40.048Z,50.44
2018-10-06T12:46:33.215Z,50.15
2018-10-06T12:51:26.534Z,52.29
2018-10-06T12:56:20.002Z,51.39
2018-10-06T13:01:13.281Z,49.93
2018-10-06T13:06:06.565Z,51.48
2018-10-06T13:11:00.042Z,51.00
2018-10-06T13:15:53.255Z,49.66
2018-10-06T13:20:46.434Z,50.17
2018-10-06T13:25:39.622Z,49.79
2018-10-06T13:30:32.766Z,51.67
2018-10-06T13:35:25.945Z,50.00
2018-10-06T13:40:19.312Z,50.58
2018-10-06T13:45:12.868Z,49.33
2018-10-06T13:50:06.006Z,50.60
2018-10-06T13:54:59.221Z,50.62
2018-10-06T13:59:52.678Z,51.19
2018-10-06T14:04:45.804Z,52.13
2018-10-06T14:09:39.121Z,50.62
2018-10-06T14:14:32.307Z,51.26
2018-10-06T14:19:25.633Z,51.34
2018-10-06T14:24:18.875Z,51.54
2018-10-06T14:29:12.066Z,51.39
2018-10-06T14:34:05.652Z,51.98
2018-10-06T14:38:58.914Z,52.14
2018-10-06T14:43:53.346Z,52.41
2018-10-06T14:48:46.590Z,53.20
2018-10-06T14:53:39.827Z,53.82
2018-10-06T14:58:33.096Z,54.65
2018-10-06T15:03:26.300Z,54.46
2018-10-06T15:08:20.731Z,54.32
2018-10-06T15:13:13.905Z,55.55
2018-10-06T15:18:07.303Z,56.55
2018-10-06T15:23:01.202Z,57.58
2018-10-06T15:27:54.544Z,58.04
2018-10-06T15:32:47.915Z,59.28
2018-10-06T15:37:41.367Z,59.47
2018-10-06T15:42:34.574Z,60.38
2018-10-06T15:47:27.896Z,60.82
2018-10-06T15:52:21.234Z,61.48
2018-10-06T15:57:14.509Z,62.32
2018-10-06T16:02:07.666Z,63.22
2018-10-06T16:07:00.875Z,63.95
2018-10-06T16:11:54.167Z,64.65
2018-10-06T16:16:47.541Z,64.39
2018-10-06T16:21:40.942Z,66.04
2018-10-06T16:26:34.107Z,65.88
2018-10-06T16:31:27.425Z,66.42
2018-10-06T16:36:20.714Z,66.73
2018-10-06T16:41:14.055Z,67.84
2018-10-06T16:46:07.619Z,68.01
2018-10-06T16:51:01.836Z,68.34
2018-10-06T16:55:55.124Z,68.73
2018-10-06T17:00:48.402Z,69.90
2018-10-06T17:05:41.672Z,70.71
2018-10-06T17:10:34.968Z,69.55
2018-10-06T17:15:28.572Z,69.70
2018-10-06T17:20:21.967Z,70.13
2018-10-06T17:25:15.580Z,69.86
2018-10-06T17:30:08.921Z,70.45
2018-10-06T17:35:02.199Z,71.13
2018-10-06T17:39:55.547Z,71.68
2018-10-06T17:44:49.216Z,71.65
2018-10-06T17:49:42.738Z,71.72
2018-10-06T17:54:36.128Z,71.57
2018-10-06T17:59:29.950Z,72.27
2018-10-06T18:04:23.343Z,72.95
2018-10-06T18:09:16.875Z,74.82
2018-10-06T18:14:10.302Z,75.80
2018-10-06T18:19:03.622Z,76.29
2018-10-06T18:23:57.134Z,76.56
2018-10-06T18:28:51.429Z,76.46
2018-10-06T18:33:45.147Z,77.94
2018-10-06T18:38:38.464Z,78.24
2018-10-06T18:43:31.934Z,78.09
2018-10-06T18:48:25.833Z,77.86
2018-10-06T18:53:19.166Z,78.46
2018-10-06T18:58:12.755Z,78.88
2018-10-06T19:03:06.289Z,78.94
2018-10-06T19:07:59.506Z,79.16
2018-10-06T19:12:52.989Z,79.44
2018-10-06T19:17:46.239Z,78.47
2018-10-06T19:22:39.619Z,78.04
2018-10-06T19:27:32.922Z,77.59
2018-10-06T19:32:26.242Z,76.79
2018-10-06T19:37:19.493Z,76.28
2018-10-06T19:42:12.829Z,76.84
2018-10-06T19:47:06.161Z,76.96
2018-10-06T19:51:59.575Z,77.17
2018-10-06T19:56:52.723Z,76.56
2018-10-06T20:01:46.065Z,76.21
2018-10-06T20:06:39.335Z,75.40
2018-10-06T20:11:33.498Z,75.01
2018-10-06T20:16:26.884Z,74.87
2018-10-06T20:21:20.490Z,74.62
2018-10-06T20:26:14.205Z,75.78
2018-10-06T20:31:08.086Z,75.59
2018-10-06T20:36:01.748Z,75.54
2018-10-06T20:40:55.484Z,74.43
2018-10-06T20:45:51.089Z,74.93
2018-10-06T20:50:45.855Z,75.17
2018-10-06T20:55:40.330Z,75.78
2018-10-06T21:00:33.978Z,75.27
2018-10-06T21:05:27.985Z,74.89
2018-10-06T21:10:23.201Z,74.52
2018-10-06T21:15:16.427Z,74.39
2018-10-06T21:20:10.771Z,73.63
2018-10-06T21:25:04.257Z,74.03
2018-10-06T21:29:57.492Z,73.59
2018-10-06T21:34:50.817Z,74.06
2018-10-06T21:39:44.081Z,74.30
2018-10-06T21:44:37.404Z,73.51
2018-10-06T21:49:30.786Z,74.10
2018-10-06T21:54:24.000Z,74.79
2018-10-06T21:59:17.376Z,75.82
2018-10-06T22:04:10.615Z,75.31
2018-10-06T22:09:04.053Z,76.01
2018-10-06T22:13:57.327Z,76.37
2018-10-06T22:18:50.718Z,75.67
2018-10-06T22:23:44.069Z,74.54
2018-10-06T22:28:37.311Z,74.52
2018-10-06T22:33:30.642Z,74.52
2018-10-06T22:38:23.966Z,74.61
2018-10-06T22:43:17.386Z,74.93
2018-10-06T22:48:10.731Z,74.33
2018-10-06T22:53:04.095Z,74.36
2018-10-06T22:57:57.406Z,74.49
2018-10-06T23:02:50.624Z,74.05
2018-10-06T23:07:43.974Z,74.11
2018-10-06T23:12:37.296Z,74.44
2018-10-06T23:17:30.515Z,74.29
2018-10-06T23:22:24.005Z,74.82
2018-10-06T23:27:17.169Z,74.56
2018-10-06T23:32:10.310Z,73.99
2018-10-06T23:37:03.507Z,74.25
2018-10-06T23:41:56.747Z,73.62
2018-10-06T23:46:50.070Z,74.08
2018-10-06T23:51:43.423Z,72.77
2018-10-06T23:56:36.592Z,73.15
